Time;durP1;ratioP1;P1;durP2;ratioP2;P2;SDS_P1;SDS_P2;PMS_P1;PMS_P2;Temp;Humidity;BMP_temperature;BMP_pressure;BME280_temperature;BME280_humidity;BME280_pressure;Samples;Min_cycle;Max_cycle;Signal;HPM_P1;HPM_P2
2022/04/29 00:00:24;;;;;;;39.72;11.88;;;;;;;29.48;35.00;97997.72;4814978;29;20499;-65
2022/04/29 00:03:16;;;;;;;54.08;10.77;;;;;;;29.36;35.07;97992.03;4815994;29;20542;-65
2022/04/29 00:05:58;;;;;;;54.08;11.90;;;;;;;29.42;35.12;97998.44;4816744;29;20054;-63
2022/04/29 00:08:47;;;;;;;62.03;12.38;;;;;;;29.42;35.19;97990.47;4816093;29;20362;-63
2022/04/29 00:11:29;;;;;;;52.88;11.35;;;;;;;29.45;35.05;97998.91;4816286;29;20461;-65
2022/04/29 00:14:19;;;;;;;45.92;10.80;;;;;;;29.43;35.60;97997.44;4815063;29;20534;-63
2022/04/29 00:17:01;;;;;;;43.47;9.88;;;;;;;29.52;35.83;98001.66;4816251;29;20058;-63
2022/04/29 00:19:50;;;;;;;37.75;8.90;;;;;;;29.36;38.02;98001.81;4814123;29;20058;-63
2022/04/29 00:22:32;;;;;;;42.40;9.00;;;;;;;29.24;36.74;98010.19;4819008;29;20048;-63
2022/04/29 00:25:21;;;;;;;50.15;9.13;;;;;;;29.44;35.51;98009.72;4815677;29;20060;-62
2022/04/29 00:28:03;;;;;;;47.20;10.60;;;;;;;29.42;35.81;98011.72;4816776;29;20651;-63
2022/04/29 00:30:53;;;;;;;43.70;9.73;;;;;;;29.35;39.54;98019.59;4814584;29;20060;-63
2022/04/29 00:33:34;;;;;;;36.38;9.40;;;;;;;29.17;37.52;98035.81;4801345;29;20097;-63
2022/04/29 00:36:24;;;;;;;60.53;9.43;;;;;;;29.20;36.14;98043.41;4796209;29;20050;-63
2022/04/29 00:39:06;;;;;;;56.80;10.23;;;;;;;29.36;36.28;98039.81;4815316;29;20085;-62
2022/04/29 00:41:55;;;;;;;50.70;10.57;;;;;;;29.29;36.69;98042.31;4816252;29;20143;-63
2022/04/29 00:44:46;;;;;;;51.97;10.15;;;;;;;29.29;36.96;98047.63;4798001;29;20047;-63
2022/04/29 00:47:28;;;;;;;63.60;12.55;;;;;;;29.26;35.79;98055.97;4822081;29;20062;-63
2022/04/29 00:50:19;;;;;;;53.22;10.77;;;;;;;29.26;37.73;98053.31;4816207;29;20050;-63
2022/04/29 00:53:04;;;;;;;50.22;12.60;;;;;;;29.12;37.89;98040.84;4816956;29;20053;-63
2022/04/29 00:55:56;;;;;;;60.55;11.00;;;;;;;29.12;38.82;98040.84;4815917;29;20051;-64
2022/04/29 00:58:47;;;;;;;65.03;12.68;;;;;;;29.02;37.08;98048.19;4830385;29;20084;-64
2022/04/29 01:01:37;;;;;;;61.20;10.98;;;;;;;29.12;37.44;98048.78;4816132;29;20046;-63
2022/04/29 01:04:38;;;;;;;44.42;9.20;;;;;;;29.05;40.64;98042.56;4813277;29;20683;-63
2022/04/29 01:07:30;;;;;;;42.35;10.73;;;;;;;28.96;41.20;98042.78;4815461;29;20082;-61
2022/04/29 01:10:15;;;;;;;61.67;9.52;;;;;;;28.91;39.09;98040.66;4815895;29;20382;-61
2022/04/29 01:13:04;;;;;;;46.33;8.90;;;;;;;28.98;39.04;98041.59;4816952;29;20042;-62
2022/04/29 01:15:48;;;;;;;43.22;8.77;;;;;;;29.02;38.91;98050.84;4800739;29;20054;-62
2022/04/29 01:18:38;;;;;;;59.55;10.25;;;;;;;29.00;38.66;98046.72;4814485;29;20050;-63
2022/04/29 01:21:21;;;;;;;54.08;8.30;;;;;;;29.06;39.29;98038.88;4800410;29;20397;-63
2022/04/29 01:24:10;;;;;;;49.63;8.10;;;;;;;29.14;38.06;98046.75;4815598;29;20054;-64
2022/04/29 01:26:52;;;;;;;56.80;8.05;;;;;;;29.11;39.07;98043.66;4815651;29;20135;-63
2022/04/29 01:29:52;;;;;;;55.03;7.80;;;;;;;29.14;39.30;98045.94;4815544;29;20114;-63
2022/04/29 01:32:29;;;;;;;;;;;;;;;29.20;38.21;98040.75;4803324;29;20058;-63
2022/04/29 01:35:25;;;;;;;30.13;7.13;;;;;;;29.21;41.19;98036.28;4809367;29;19929;-63
2022/04/29 01:38:20;;;;;;;52.15;7.93;;;;;;;29.21;51.62;98037.06;4802240;29;20050;-63
2022/04/29 01:41:10;;;;;;;39.83;7.80;;;;;;;29.18;46.51;98042.75;4785991;29;20063;-63
2022/04/29 01:43:59;;;;;;;47.00;8.25;;;;;;;29.15;43.27;98042.28;4801173;29;20531;-64
2022/04/29 01:46:43;;;;;;;47.13;8.80;;;;;;;29.12;41.38;98037.34;4800986;29;20054;-63
2022/04/29 01:49:54;;;;;;;51.50;9.45;;;;;;;29.20;41.70;98029.31;4801477;29;20131;-64
2022/04/29 01:52:38;;;;;;;43.88;9.88;;;;;;;29.25;42.62;98032.25;4785832;29;20063;-64
2022/04/29 01:55:27;;;;;;;55.28;10.38;;;;;;;29.32;45.58;98025.22;4818418;29;20065;-64
2022/04/29 01:58:10;;;;;;;51.10;10.57;;;;;;;29.33;43.16;98023.38;4818273;29;20054;-64
2022/04/29 02:00:59;;;;;;;29.55;9.20;;;;;;;29.45;47.10;98022.81;4802220;29;20100;-64
2022/04/29 02:03:54;;;;;;;34.00;9.40;;;;;;;29.41;48.07;98028.66;4827029;29;20409;-62
2022/04/29 02:06:30;;;;;;;44.70;8.75;;;;;;;29.40;53.20;98019.03;4793439;29;20065;-62
2022/04/29 02:09:20;;;;;;;38.45;8.95;;;;;;;29.52;52.15;98025.56;4817937;29;20146;-62
2022/04/29 02:12:05;;;;;;;50.45;9.00;;;;;;;29.64;55.29;98019.59;4817557;29;20050;-62
2022/04/29 02:15:03;;;;;;;44.70;9.80;;;;;;;29.96;47.50;98018.44;4821248;29;20482;-62
2022/04/29 02:17:53;;;;;;;44.42;7.50;;;;;;;30.43;48.76;98023.28;4812770;29;20139;-62
2022/04/29 02:22:16;;;;;;;53.13;8.95;;;;;;;30.94;49.77;98017.91;4817265;29;20620;-62
2022/04/29 02:25:12;;;;;;;47.47;8.73;;;;;;;31.37;42.86;98026.66;4802423;29;20775;-63
2022/04/29 02:27:48;;;;;;;28.10;7.53;;;;;;;31.97;44.43;98024.38;4813441;29;20534;-63
2022/04/29 02:30:37;;;;;;;45.67;8.60;;;;;;;32.15;48.92;98020.22;4802979;29;20069;-63
2022/04/29 02:33:27;;;;;;;47.75;8.40;;;;;;;32.46;43.84;98032.19;4820068;29;20069;-63
2022/04/29 02:36:09;;;;;;;;;;;;;;;32.91;40.20;98020.81;4800742;29;20047;-64
2022/04/29 02:39:06;;;;;;;42.53;6.90;;;;;;;33.17;42.23;98024.53;4811552;29;19933;-63
2022/04/29 02:41:56;;;;;;;38.00;8.43;;;;;;;33.51;36.08;98029.69;4817362;29;20054;-63
2022/04/29 02:44:51;;;;;;;33.60;8.48;;;;;;;33.51;39.55;98027.00;4812523;29;20078;-64
2022/04/29 02:47:46;;;;;;;49.08;9.35;;;;;;;33.92;37.08;98033.94;4826821;29;20050;-63
2022/04/29 02:50:35;;;;;;;42.97;8.60;;;;;;;34.21;37.11;98027.25;4800856;29;20065;-63
2022/04/29 02:53:20;;;;;;;40.42;7.78;;;;;;;34.53;35.38;98029.78;4817019;29;20074;-63
2022/04/29 02:56:09;;;;;;;51.10;8.90;;;;;;;34.38;33.87;98031.94;4829566;29;20050;-63
2022/04/29 02:59:14;;;;;;;34.05;7.80;;;;;;;34.59;33.53;98032.63;4815440;29;20131;-63
2022/04/29 03:02:03;;;;;;;36.72;8.65;;;;;;;34.45;32.93;98038.06;4819930;29;20142;-63
2022/04/29 03:04:45;;;;;;;;;;;;;;;34.77;33.99;98040.78;4802980;29;20050;-64
2022/04/29 03:07:35;;;;;;;50.78;8.45;;;;;;;34.78;32.09;98039.75;4799994;29;19925;-63
2022/04/29 03:10:22;;;;;;;40.50;7.53;;;;;;;34.85;31.96;98035.19;4815665;29;20062;-63
2022/04/29 03:13:11;;;;;;;37.53;7.38;;;;;;;34.95;31.87;98042.75;4813079;29;20492;-64
2022/04/29 03:16:01;;;;;;;36.67;8.05;;;;;;;35.05;31.31;98051.91;4800832;29;20052;-63
2022/04/29 03:18:50;;;;;;;40.88;8.60;;;;;;;35.35;36.08;98045.94;4829381;29;20087;-63
2022/04/29 03:21:39;;;;;;;36.28;7.72;;;;;;;35.12;32.40;98052.69;4829788;29;20070;-62
2022/04/29 03:24:22;;;;;;;33.13;8.50;;;;;;;35.40;32.80;98046.09;4799168;29;20082;-64
2022/04/29 03:27:17;;;;;;;33.45;8.80;;;;;;;35.37;33.31;98049.22;4800320;29;20057;-63
2022/04/29 03:29:52;;;;;;;39.22;8.57;;;;;;;35.37;33.51;98043.84;4828831;29;20046;-64
2022/04/29 03:32:56;;;;;;;39.67;8.80;;;;;;;35.46;33.17;98050.56;4798053;29;20478;-64
2022/04/29 03:35:51;;;;;;;52.42;9.93;;;;;;;35.44;33.51;98045.44;4798122;29;20058;-63
2022/04/29 03:38:50;;;;;;;35.80;10.18;;;;;;;35.71;31.76;98048.72;4833444;29;20050;-63
2022/04/29 03:41:39;;;;;;;41.35;9.38;;;;;;;35.66;29.37;98049.38;4812137;29;20069;-65
2022/04/29 03:44:29;;;;;;;34.15;8.60;;;;;;;36.00;29.81;98050.66;4806044;29;20406;-63
2022/04/29 03:47:19;;;;;;;34.03;8.73;;;;;;;36.07;30.67;98045.25;4826852;29;20688;-64
2022/04/29 03:50:23;;;;;;;39.90;9.07;;;;;;;36.19;31.21;98048.81;4798694;29;20058;-62
2022/04/29 03:53:24;;;;;;;26.30;8.00;;;;;;;35.99;33.27;98042.84;4808079;29;20062;-63
2022/04/29 03:56:13;;;;;;;25.35;8.18;;;;;;;36.30;33.77;98053.44;4810684;29;20122;-63
2022/04/29 03:59:02;;;;;;;28.77;9.48;;;;;;;36.45;31.11;98042.31;4817174;29;20073;-63
2022/04/29 04:01:52;;;;;;;26.80;9.13;;;;;;;36.66;37.37;98055.25;4831214;29;20065;-62
2022/04/29 04:04:48;;;;;;;34.05;6.90;;;;;;;36.68;30.58;98047.78;4816749;29;20054;-64
2022/04/29 04:07:23;;;;;;;40.40;7.82;;;;;;;36.75;32.63;98053.06;4810198;29;20420;-64
2022/04/29 04:10:26;;;;;;;28.00;8.13;;;;;;;36.96;30.97;98049.06;4815314;29;20366;-63
2022/04/29 04:13:09;;;;;;;29.38;7.38;;;;;;;37.15;28.90;98054.13;4816687;29;20141;-63
2022/04/29 04:16:18;;;;;;;32.15;7.97;;;;;;;37.41;29.50;98057.44;4816385;29;20145;-63
2022/04/29 04:19:08;;;;;;;29.67;8.48;;;;;;;37.46;32.99;98044.94;4795075;29;20724;-62
2022/04/29 04:21:58;;;;;;;25.23;7.13;;;;;;;37.76;36.39;98052.06;4815536;29;20062;-63
2022/04/29 04:24:41;;;;;;;23.40;7.43;;;;;;;37.81;30.31;98058.41;4798186;29;20078;-63
2022/04/29 04:27:30;;;;;;;29.75;7.68;;;;;;;37.89;27.74;98062.59;4814963;29;20062;-63
2022/04/29 04:30:20;;;;;;;27.23;6.97;;;;;;;38.13;27.34;98055.34;4814712;29;20608;-63
2022/04/29 04:33:09;;;;;;;28.25;7.68;;;;;;;38.01;26.79;98062.56;4800183;29;20061;-64
2022/04/29 04:35:53;;;;;;;24.38;7.47;;;;;;;38.48;27.54;98053.31;4799927;29;20054;-62
2022/04/29 04:38:48;;;;;;;29.77;6.80;;;;;;;38.56;27.62;98052.97;4832870;29;20054;-63
2022/04/29 04:41:45;;;;;;;30.50;7.63;;;;;;;38.85;26.55;98052.97;4816606;29;20062;-64
2022/04/29 04:45:03;;;;;;;26.15;7.68;;;;;;;38.85;26.50;98053.78;4793652;29;20054;-63
2022/04/29 04:47:54;;;;;;;21.00;8.27;;;;;;;39.06;32.36;98048.78;4779922;29;20054;-62
2022/04/29 04:51:22;;;;;;;25.40;7.10;;;;;;;38.90;26.48;98055.75;4795143;29;20051;-63
2022/04/29 04:54:15;;;;;;;27.45;6.93;;;;;;;39.08;25.91;98057.44;4796482;29;20066;-63
2022/04/29 04:57:05;;;;;;;18.73;7.10;;;;;;;39.19;26.08;98048.47;4795524;29;20047;-63
2022/04/29 04:59:48;;;;;;;20.27;6.85;;;;;;;39.28;28.80;98049.66;4798595;29;20718;-63
2022/04/29 05:02:57;;;;;;;23.17;7.70;;;;;;;39.45;26.94;98060.47;4797677;29;20061;-63
2022/04/29 05:05:58;;;;;;;27.17;6.60;;;;;;;39.47;27.08;98064.56;4801944;29;20060;-63
2022/04/29 05:08:41;;;;;;;23.95;6.35;;;;;;;39.67;26.10;98056.75;4801298;29;20051;-64
2022/04/29 05:11:29;;;;;;;;;;;;;;;39.70;26.54;98056.28;4800657;29;20091;-62
2022/04/29 05:15:01;;;;;;;20.63;6.68;;;;;;;39.71;24.52;98051.69;4792023;29;19933;-63
2022/04/29 05:17:50;;;;;;;29.42;7.43;;;;;;;39.56;24.91;98052.31;4800438;29;20054;-63
2022/04/29 05:20:37;;;;;;;18.38;6.50;;;;;;;39.88;25.81;98052.50;4798434;29;20058;-62
2022/04/29 05:23:27;;;;;;;26.02;8.10;;;;;;;39.66;26.01;98047.06;4783072;29;20143;-64
2022/04/29 05:26:27;;;;;;;28.42;6.88;;;;;;;39.97;24.79;98047.50;4792430;29;20082;-63
2022/04/29 05:29:33;;;;;;;24.00;6.47;;;;;;;40.10;23.67;98049.81;4799967;29;20119;-63
2022/04/29 05:32:35;;;;;;;20.08;6.40;;;;;;;39.98;23.91;98041.03;4794976;29;20042;-64
2022/04/29 05:35:43;;;;;;;27.55;6.93;;;;;;;40.29;28.84;98042.25;4783716;29;20793;-62
2022/04/29 05:42:15;;;;;;;21.35;6.82;;;;;;;39.67;30.76;98029.78;4800935;29;20059;-64
2022/04/29 05:45:11;;;;;;;20.35;6.55;;;;;;;39.50;26.15;98026.31;4799761;29;20059;-64
2022/04/29 05:48:01;;;;;;;27.40;7.63;;;;;;;39.98;30.75;98030.25;4812523;29;20055;-64
2022/04/29 05:50:51;;;;;;;15.73;7.35;;;;;;;39.89;26.24;98031.75;4782756;29;20836;-63
2022/04/29 05:53:34;;;;;;;19.40;6.47;;;;;;;40.01;25.74;98029.72;4784364;29;20153;-63
2022/04/29 05:56:23;;;;;;;17.42;6.13;;;;;;;40.09;32.79;98029.28;4784537;29;20127;-62
2022/04/29 05:59:11;;;;;;;16.73;6.70;;;;;;;40.00;28.07;98020.00;4798964;29;20072;-63
2022/04/29 06:02:00;;;;;;;18.45;6.63;;;;;;;39.89;24.05;98026.34;4800298;29;20150;-63
2022/04/29 06:05:09;;;;;;;27.50;7.65;;;;;;;40.07;24.94;98017.94;4774003;29;20508;-63
2022/04/29 06:07:59;;;;;;;15.45;7.55;;;;;;;39.88;28.73;98011.22;4767017;30;20055;-63
2022/04/29 06:10:45;;;;;;;20.13;6.50;;;;;;;39.89;25.58;98008.28;4781690;29;20051;-62
2022/04/29 06:13:34;;;;;;;26.48;6.68;;;;;;;40.01;26.44;98008.94;4775231;29;20055;-63
2022/04/29 06:16:52;;;;;;;26.38;6.60;;;;;;;39.85;25.92;98009.00;4714637;30;20140;-64
2022/04/29 06:19:59;;;;;;;16.08;5.32;;;;;;;39.87;26.26;98001.47;4800486;29;20150;-64
2022/04/29 06:22:58;;;;;;;23.17;6.50;;;;;;;39.78;25.40;98003.78;4799758;29;20137;-63
2022/04/29 06:25:48;;;;;;;23.52;6.38;;;;;;;39.87;24.66;97996.91;4800121;29;20062;-64
2022/04/29 06:28:34;;;;;;;23.15;6.07;;;;;;;39.83;31.74;97989.56;4783605;29;20051;-65
2022/04/29 06:31:25;;;;;;;23.90;7.07;;;;;;;39.74;33.17;97978.38;4796996;29;20749;-65
2022/04/29 06:34:13;;;;;;;12.68;5.25;;;;;;;39.81;30.05;97983.56;4801103;29;20111;-64
2022/04/29 06:37:05;;;;;;;20.98;5.32;;;;;;;39.91;26.85;97979.13;4815455;29;20051;-65
2022/04/29 06:39:49;;;;;;;15.40;5.05;;;;;;;39.87;28.08;97977.19;4784491;29;20050;-64
2022/04/29 06:42:54;;;;;;;16.25;5.38;;;;;;;39.77;26.41;97975.16;4787056;29;20066;-65
2022/04/29 06:46:01;;;;;;;14.35;5.22;;;;;;;39.90;25.50;97977.53;4835475;29;20481;-64
2022/04/29 06:48:54;;;;;;;11.25;5.07;;;;;;;39.96;28.53;97971.13;4821638;29;20132;-65
2022/04/29 06:51:55;;;;;;;18.55;4.82;;;;;;;39.75;25.34;97967.28;4817870;29;20142;-64
2022/04/29 06:54:57;;;;;;;21.92;5.50;;;;;;;39.66;22.12;97968.00;4816344;29;20082;-65
2022/04/29 06:57:53;;;;;;;15.40;5.50;;;;;;;39.84;25.60;97961.50;4792722;29;20150;-65
2022/04/29 07:00:28;;;;;;;19.52;6.20;;;;;;;39.84;24.26;97959.63;4816487;29;20550;-65
2022/04/29 07:03:24;;;;;;;;;;;;;;;39.85;27.97;97957.72;4834259;29;20129;-65
2022/04/29 07:06:00;;;;;;;13.80;5.38;;;;;;;39.69;22.45;97954.00;4832246;29;19928;-65
2022/04/29 07:08:50;;;;;;;20.33;6.57;;;;;;;39.72;25.70;97950.81;4799867;29;20039;-65
2022/04/29 07:11:51;;;;;;;19.65;4.80;;;;;;;39.80;28.31;97950.38;4817226;29;20545;-65
2022/04/29 07:14:54;;;;;;;27.15;6.28;;;;;;;39.83;30.83;97939.13;4801839;29;20058;-63
2022/04/29 07:17:43;;;;;;;11.15;5.07;;;;;;;39.84;26.56;97943.41;4815700;29;20050;-63
2022/04/29 07:20:25;;;;;;;15.07;5.22;;;;;;;39.81;25.30;97943.09;4818206;29;20061;-63
2022/04/29 07:23:14;;;;;;;26.77;6.10;;;;;;;39.73;23.69;97952.44;4814550;29;20054;-64
2022/04/29 07:26:03;;;;;;;14.82;4.55;;;;;;;39.80;23.06;97942.28;4817181;29;20486;-64
2022/04/29 07:28:53;;;;;;;11.77;4.05;;;;;;;39.97;26.12;97936.84;4814192;29;20058;-64
2022/04/29 07:31:48;;;;;;;15.80;4.95;;;;;;;40.02;25.62;97928.78;4800138;29;20050;-64
2022/04/29 07:44:37;;;;;;;17.17;5.00;;;;;;;39.64;23.43;97926.97;4801237;29;20046;-65
2022/04/29 07:47:47;;;;;;;21.17;4.57;;;;;;;39.76;24.42;97919.56;4798017;29;20058;-64
2022/04/29 07:50:40;;;;;;;28.27;4.72;;;;;;;39.76;26.33;97920.38;4781114;29;20050;-65
2022/04/29 07:53:23;;;;;;;20.05;4.88;;;;;;;39.72;22.24;97919.25;4797845;29;20055;-64
2022/04/29 07:56:12;;;;;;;13.50;4.97;;;;;;;39.72;26.17;97908.47;4786766;29;20065;-64
2022/04/29 07:58:59;;;;;;;21.50;5.05;;;;;;;39.73;22.94;97902.00;4773556;29;20442;-64
2022/04/29 08:01:48;;;;;;;23.88;5.30;;;;;;;39.65;20.96;97907.84;4798352;29;20057;-61
2022/04/29 08:04:31;;;;;;;30.00;5.07;;;;;;;39.66;26.94;97896.00;4793777;29;20059;-62
2022/04/29 08:07:21;;;;;;;23.65;5.20;;;;;;;39.55;25.79;97896.91;4782343;29;20047;-63
2022/04/29 08:10:03;;;;;;;29.42;5.20;;;;;;;39.54;25.70;97894.47;4797995;29;20376;-62
2022/04/29 08:12:58;;;;;;;25.08;6.00;;;;;;;39.54;23.70;97889.88;4781674;29;20766;-63
2022/04/29 08:15:51;;;;;;;20.13;5.50;;;;;;;39.53;24.61;97882.88;4797971;29;20062;-62
2022/04/29 08:19:04;;;;;;;22.02;7.20;;;;;;;39.48;23.77;97873.91;4795938;29;20055;-63
2022/04/29 08:22:05;;;;;;;26.70;6.10;;;;;;;39.43;24.24;97871.97;4797003;29;20413;-62
2022/04/29 08:24:47;;;;;;;21.92;6.30;;;;;;;39.48;21.78;97873.91;4796035;29;20074;-62
2022/04/29 08:27:37;;;;;;;25.25;8.48;;;;;;;39.53;21.68;97868.56;4777014;29;20052;-62
2022/04/29 08:30:30;;;;;;;20.58;5.78;;;;;;;39.47;23.32;97856.91;4796255;29;20085;-62
2022/04/29 08:33:21;;;;;;;;;;;;;;;39.47;22.52;97856.09;4783698;29;20134;-62
2022/04/29 08:36:17;;;;;;;23.98;6.28;;;;;;;39.38;24.20;97851.13;4793680;29;19933;-61
2022/04/29 08:39:06;;;;;;;28.48;7.38;;;;;;;39.51;23.20;97851.84;4786865;29;20092;-63
2022/04/29 08:41:52;;;;;;;35.30;7.95;;;;;;;39.44;24.11;97837.69;4782052;29;20145;-62
2022/04/29 08:44:42;;;;;;;32.63;7.78;;;;;;;39.38;27.03;97834.13;4795302;29;20050;-60
2022/04/29 08:47:52;;;;;;;24.52;6.70;;;;;;;39.28;26.96;97815.09;4813012;29;20173;-61
2022/04/29 08:50:46;;;;;;;22.00;6.45;;;;;;;39.21;24.34;97815.28;4813710;29;20050;-61
2022/04/29 08:53:35;;;;;;;29.98;8.35;;;;;;;39.12;26.52;97805.19;4814165;29;20070;-62
2022/04/29 08:59:26;;;;;;;22.13;6.80;;;;;;;39.08;26.68;97798.69;4815843;29;20070;-61
2022/04/29 09:02:09;;;;;;;;;;;;;;;39.07;23.93;97800.56;4816425;29;20042;-62
2022/04/29 09:05:01;;;;;;;19.30;7.53;;;;;;;39.10;24.00;97791.19;4799805;29;19937;-61
2022/04/29 09:07:53;;;;;;;38.92;7.50;;;;;;;38.98;26.65;97788.59;4815586;29;20061;-62
2022/04/29 09:10:43;;;;;;;18.80;6.30;;;;;;;38.88;25.35;97778.47;4814784;29;20080;-61
2022/04/29 09:13:26;;;;;;;;;;;;;;;38.81;26.24;97769.75;4814513;29;20054;-61
2022/04/29 09:16:18;;;;;;;23.35;6.47;;;;;;;38.73;26.60;97770.16;4815280;29;19985;-62
2022/04/29 09:19:33;;;;;;;23.95;6.57;;;;;;;38.60;25.60;97767.84;4816536;29;20050;-62
2022/04/29 09:22:22;;;;;;;16.95;6.95;;;;;;;38.50;24.32;97763.13;4788539;29;20078;-62
2022/04/29 09:25:24;;;;;;;21.13;7.70;;;;;;;38.48;27.81;97750.94;4816457;29;20068;-60
2022/04/29 09:28:27;;;;;;;23.10;8.23;;;;;;;38.38;25.81;97745.41;4814634;29;20904;-60
2022/04/29 09:31:25;;;;;;;27.77;8.05;;;;;;;38.29;27.58;97737.75;4815135;29;20053;-62
2022/04/29 09:34:58;;;;;;;26.13;9.15;;;;;;;38.26;26.69;97738.25;4814625;29;20050;-62
2022/04/29 09:40:55;;;;;;;21.88;6.65;;;;;;;38.12;27.74;97715.41;4811573;29;20465;-60
2022/04/29 09:43:51;;;;;;;22.75;7.13;;;;;;;38.23;25.51;97714.53;4813222;29;20057;-60
2022/04/29 09:46:26;;;;;;;21.38;6.53;;;;;;;38.21;26.21;97705.88;4799488;29;20053;-61
2022/04/29 09:49:23;;;;;;;39.55;6.82;;;;;;;38.41;23.57;97707.22;4813698;29;20050;-61
2022/04/29 09:52:19;;;;;;;26.15;6.97;;;;;;;38.51;23.11;97707.41;4813995;29;20062;-60
2022/04/29 09:55:15;;;;;;;23.77;6.80;;;;;;;38.45;26.58;97690.34;4818261;29;20043;-64
2022/04/29 09:58:08;;;;;;;25.85;6.57;;;;;;;38.29;25.95;97689.31;4817911;29;20074;-62
2022/04/29 10:00:51;;;;;;;23.95;7.40;;;;;;;38.20;24.31;97687.28;4813836;29;20054;-63
2022/04/29 10:03:41;;;;;;;17.77;6.97;;;;;;;38.15;27.46;97676.44;4484491;29;10001098;-62
2022/04/29 10:06:27;;;;;;;16.33;6.85;;;;;;;38.09;25.31;97678.22;4813918;29;20157;-61
2022/04/29 10:09:17;;;;;;;31.00;7.75;;;;;;;38.27;22.92;97675.28;4816984;29;20631;-62
2022/04/29 10:12:02;;;;;;;20.33;6.95;;;;;;;38.28;24.61;97671.53;4817455;29;20054;-62
2022/04/29 10:15:00;;;;;;;26.90;7.88;;;;;;;38.08;26.62;97656.94;4817087;29;20058;-62
2022/04/29 10:21:19;;;;;;;24.83;8.02;;;;;;;37.91;26.52;97662.34;4820724;29;20103;-61
2022/04/29 10:24:04;;;;;;;28.20;7.93;;;;;;;37.85;27.23;97650.66;4817970;29;20565;-61
2022/04/29 10:26:54;;;;;;;27.40;7.95;;;;;;;37.85;26.01;97650.66;4818508;29;20141;-62
2022/04/29 10:29:38;;;;;;;23.50;9.23;;;;;;;37.85;25.57;97645.28;4817509;29;20688;-63
2022/04/29 10:32:27;;;;;;;26.35;8.65;;;;;;;37.91;25.18;97643.50;4495910;29;9999887;-63
2022/04/29 10:35:09;;;;;;;24.55;9.30;;;;;;;37.81;26.89;97632.59;4814644;29;20058;-62
2022/04/29 10:38:12;;;;;;;19.80;8.50;;;;;;;37.77;26.28;97632.25;4829340;29;20492;-62
2022/04/29 10:41:21;;;;;;;22.15;8.38;;;;;;;37.70;24.46;97626.22;4816338;29;20107;-63
2022/04/29 10:44:04;;;;;;;20.73;7.03;;;;;;;37.58;26.25;97608.53;4813863;29;20051;-63
2022/04/29 10:46:54;;;;;;;31.95;8.80;;;;;;;37.49;27.08;97614.31;4815113;29;20054;-62
2022/04/29 10:50:38;;;;;;;29.42;7.38;;;;;;;37.49;27.35;97608.13;4812952;29;20054;-62
2022/04/29 10:54:05;;;;;;;31.10;7.72;;;;;;;37.59;24.49;97599.41;4780708;29;20137;-63
2022/04/29 10:57:04;;;;;;;33.80;7.80;;;;;;;37.51;26.47;97597.94;4813310;29;20061;-63
2022/04/29 11:00:00;;;;;;;25.38;6.30;;;;;;;37.49;23.93;97592.81;4805239;29;20123;-62
2022/04/29 11:02:46;;;;;;;15.95;5.40;;;;;;;37.66;24.86;97587.44;4806451;29;20054;-61
2022/04/29 11:05:36;;;;;;;27.50;5.75;;;;;;;37.58;23.57;97585.16;4814514;29;20073;-61
2022/04/29 11:08:18;;;;;;;;;;;;;;;37.51;25.52;97590.69;4813603;29;20050;-61
2022/04/29 11:11:16;;;;;;;20.77;5.32;;;;;;;37.63;22.54;97592.50;4815309;29;20413;-63
2022/04/29 11:14:26;;;;;;;19.60;5.32;;;;;;;37.74;23.33;97580.84;4813602;29;20146;-62
2022/04/29 11:17:46;;;;;;;19.70;4.63;;;;;;;37.57;24.00;97574.63;4814637;29;20074;-60
2022/04/29 11:20:39;;;;;;;22.75;5.43;;;;;;;37.45;24.30;97580.91;4800595;29;20051;-61
2022/04/29 11:26:56;;;;;;;22.70;5.38;;;;;;;37.30;24.42;97561.84;4809165;29;20145;-63
2022/04/29 11:29:40;;;;;;;19.75;5.35;;;;;;;37.24;25.50;97562.00;4814863;29;20506;-63
2022/04/29 11:32:42;;;;;;;25.85;6.63;;;;;;;37.00;28.43;97562.13;4809076;29;20054;-63
2022/04/29 11:35:30;;;;;;;19.38;5.15;;;;;;;36.86;24.62;97565.34;4810099;29;20057;-61
2022/04/29 11:38:19;;;;;;;16.92;4.47;;;;;;;36.98;22.39;97564.22;4800562;29;20065;-61
2022/04/29 11:41:02;;;;;;;26.33;6.00;;;;;;;36.93;25.75;97566.00;4815795;29;20141;-62
2022/04/29 11:43:58;;;;;;;15.05;4.78;;;;;;;36.68;25.81;97561.00;4815300;29;20054;-62
2022/04/29 11:46:50;;;;;;;23.90;5.05;;;;;;;36.73;24.21;97564.56;4816207;29;20050;-62
2022/04/29 11:49:42;;;;;;;16.27;4.60;;;;;;;36.36;27.33;97555.25;4831330;29;20066;-62
2022/04/29 11:52:33;;;;;;;24.02;6.18;;;;;;;36.45;26.57;97553.81;4811995;29;20432;-60
2022/04/29 11:55:28;;;;;;;22.70;5.50;;;;;;;36.51;25.02;97550.16;4797510;29;20058;-61
2022/04/29 11:58:04;;;;;;;21.75;5.45;;;;;;;36.45;26.70;97550.31;4817112;29;20754;-62
2022/04/29 12:00:57;;;;;;;13.80;4.70;;;;;;;36.41;25.76;97549.97;4817716;29;20050;-61
2022/04/29 12:03:39;;;;;;;19.00;5.10;;;;;;;36.38;26.42;97550.47;4814520;29;20061;-60
2022/04/29 12:06:28;;;;;;;23.58;5.63;;;;;;;36.29;26.83;97551.88;4816899;29;20054;-61
2022/04/29 12:09:21;;;;;;;14.73;4.72;;;;;;;36.40;24.65;97548.31;4799334;29;20142;-62
2022/04/29 12:12:36;;;;;;;18.85;6.20;;;;;;;36.48;24.50;97547.16;4816175;29;20054;-61
2022/04/29 12:15:11;;;;;;;24.27;5.35;;;;;;;36.43;26.23;97548.69;4812528;29;20054;-61
2022/04/29 12:18:09;;;;;;;31.20;5.43;;;;;;;36.41;24.66;97537.34;4817644;29;20122;-63
2022/04/29 12:21:04;;;;;;;19.80;5.95;;;;;;;36.42;23.89;97543.53;4816014;29;20054;-61
2022/04/29 12:23:52;;;;;;;17.27;5.10;;;;;;;36.37;25.59;97533.53;4812630;29;20063;-61
2022/04/29 12:27:14;;;;;;;23.85;5.57;;;;;;;36.21;26.15;97528.91;4821507;29;20136;-62
2022/04/29 12:36:18;;;;;;;25.77;5.90;;;;;;;36.13;27.12;97533.81;4798617;29;20475;-61
2022/04/29 12:39:11;;;;;;;23.25;5.22;;;;;;;35.94;27.22;97528.59;4816536;29;20141;-62
2022/04/29 12:42:11;;;;;;;16.25;6.43;;;;;;;35.75;27.86;97534.34;4815563;29;20058;-61
2022/04/29 12:48:04;;;;;;;15.75;5.15;;;;;;;35.28;35.45;97529.72;4814068;29;20549;-62
2022/04/29 12:50:51;;;;;;;26.10;5.72;;;;;;;35.20;27.98;97527.38;4805558;29;20058;-61
2022/04/29 12:53:46;;;;;;;19.42;5.68;;;;;;;35.14;28.88;97527.47;4815582;29;20054;-62
2022/04/29 12:56:26;;;;;;;31.80;7.00;;;;;;;35.08;27.76;97525.72;4815676;29;20443;-61
2022/04/29 12:59:22;;;;;;;14.65;5.60;;;;;;;34.93;28.72;97534.19;4816246;29;20089;-64
2022/04/29 13:02:11;;;;;;;26.20;6.68;;;;;;;34.84;28.19;97535.56;4812244;29;20059;-62
2022/04/29 13:05:00;;;;;;;22.42;6.70;;;;;;;34.89;28.87;97533.81;4824533;29;20064;-62
2022/04/29 13:07:54;;;;;;;29.67;6.40;;;;;;;34.80;30.03;97537.09;4807367;29;20801;-63
2022/04/29 13:10:51;;;;;;;22.35;6.88;;;;;;;34.64;30.94;97541.19;4814904;29;20054;-62
2022/04/29 13:13:34;;;;;;;38.67;7.82;;;;;;;34.60;29.06;97550.69;4815690;29;20058;-62
2022/04/29 13:16:23;;;;;;;27.65;7.20;;;;;;;34.48;31.79;97542.59;4828516;29;20165;-63
2022/04/29 13:19:13;;;;;;;28.75;6.80;;;;;;;34.40;28.66;97542.13;4801704;29;20137;-64
2022/04/29 13:21:55;;;;;;;31.55;6.95;;;;;;;34.34;29.62;97546.50;4815575;29;20050;-65
2022/04/29 13:24:51;;;;;;;27.70;7.25;;;;;;;34.29;29.03;97538.34;4798586;29;20054;-60
2022/04/29 13:27:40;;;;;;;37.00;7.53;;;;;;;34.18;30.13;97547.06;4814184;29;20054;-65
2022/04/29 13:30:22;;;;;;;27.88;7.47;;;;;;;34.14;29.87;97551.25;4816709;29;20394;-62
2022/04/29 13:33:12;;;;;;;26.95;6.50;;;;;;;33.97;34.87;97544.84;4829088;29;20065;-62
2022/04/29 13:35:54;;;;;;;15.63;6.78;;;;;;;33.78;35.77;97547.50;4817956;29;20126;-62
2022/04/29 13:38:43;;;;;;;31.35;8.40;;;;;;;33.62;34.69;97550.72;4818169;29;20818;-65
2022/04/29 13:41:38;;;;;;;33.78;7.72;;;;;;;33.47;33.33;97552.91;4803263;29;20058;-62
2022/04/29 13:44:19;;;;;;;28.95;7.28;;;;;;;33.36;34.22;97554.47;4818782;29;20062;-62
2022/04/29 13:47:09;;;;;;;20.73;7.05;;;;;;;33.26;39.50;97559.47;4819501;29;20058;-62
2022/04/29 13:49:51;;;;;;;24.65;7.60;;;;;;;33.13;38.95;97548.03;4820020;29;20541;-62
2022/04/29 13:55:53;;;;;;;30.05;7.55;;;;;;;32.81;39.72;97553.38;4809368;29;20115;-62
2022/04/29 13:58:43;;;;;;;27.05;7.97;;;;;;;32.67;43.10;97549.13;4819768;29;20054;-62
2022/04/29 14:01:29;;;;;;;21.77;7.43;;;;;;;32.54;42.04;97557.19;4818611;29;20069;-63